Weather observations for the past three days for
St. Petersburg/Clearwater Airport
Metric (Imperial)
Date Time (edt) Wind (kph) Vis. (km) Weather Sky Cond. Temperature (ºC) Relative Humidity Wind Chill (°C) Heat Index (°C) Pressure Precipitation (cm)
Air Dwpt 6 hour altimeter (cm) sea level (mb) 1 hr 3 hr 6 hr
Max. Min.
30 20:53 Calm 16.09 Partly Cloudy SCT013 25.6 24.4 93% 27 76.28 1016.9
30 19:53 NE 9 16.09 Light Rain SCT013 SCT110 25.6 24.4 32.2 24.4 93% 27 76.25 1016.5 0.13 2.16
30 18:53 Calm 16.09 Rain BKN100 BKN110 25 23.9 94% 26 76.25 1016.5 0.1
30 17:53 S 17 16.09 Thunderstorm Rain SCT055 BKN070 OVC110 24.4 23.3 94% 24 76.25 1016.5 1.93
30 16:53 NE 17 G 30 16.09 Overcast OVC049 30 25 75% 36 76.2 1015.7
30 15:53 NE 7 16.09 Mostly Cloudy BKN042 31.7 23.9 63% 37 76.17 1015.5
30 14:53 NE 7 16.09 A Few Clouds FEW040 31.1 23.9 66% 37 76.23 1016.3
30 13:53 NE 9 16.09 Fair CLR 31.1 25 31.1 25.6 70% 38 76.3 1017.2
30 12:53 E 13 16.09 Partly Cloudy SCT020 SCT027 30 25 75% 36 76.35 1017.7
30 11:53 E 9 16.09 Partly Cloudy SCT020 29.4 25 77% 35 76.38 1018.3
30 10:53 E 13 16.09 Partly Cloudy SCT015 28.3 25 82% 33 76.4 1018.4
30 09:53 E 11 16.09 Partly Cloudy SCT012 27.2 24.4 85% 31 76.4 1018.5
30 08:53 E 11 16.09 A Few Clouds FEW012 26.1 24.4 90% 28 76.38 1018.3
30 07:53 E 7 16.09 Fair CLR 25.6 23.9 25.6 24.4 90% 27 76.33 1017.6
30 06:53 E 6 16.09 Fair CLR 24.4 23.9 97% 24 76.3 1017.1
30 05:53 Calm 16.09 Fair CLR 24.4 23.3 94% 24 76.25 1016.6
30 04:53 SE 9 16.09 Fair CLR 25 23.3 90% 26 76.25 1016.5
30 03:53 SE 13 16.09 Fair CLR 25 22.8 88% 26 76.28 1016.9
30 02:53 E 9 16.09 Fair CLR 25 22.8 88% 26 76.3 1017.1
30 01:53 E 11 16.09 Fair CLR 25 22.8 25.6 25 88% 26 76.3 1017.1
30 00:53 E 13 16.09 Fair CLR 25 23.3 90% 26 76.35 1017.7
29 23:53 NE 13 16.09 Fair CLR 25 23.3 90% 26 76.33 1017.7
29 22:53 E 17 16.09 Fair CLR 25.6 23.3 87% 27 76.35 1017.9
29 21:53 E 11 16.09 Fair CLR 25 23.3 90% 26 76.35 1018.0
29 20:53 E 17 16.09 Fair CLR 25 23.9 94% 26 76.23 1016.2
29 19:53 E 11 16.09 Light Rain BKN110 25 23.9 33.9 24.4 94% 26 76.28 1016.9 0.08 0.08
29 18:53 S 13 16.09 Thunderstorm in Vicinity SCT075 SCT110 25 22.2 85% 26 76.33 1017.7
29 17:53 NE 15 16.09 Mostly Cloudy SCT044 SCT060 BKN080 30.6 25 72% 37 76.23 1016.3
29 15:53 NW 19 16.09 Fair CLR 32.2 25 66% 39 76.23 1016.3
29 14:53 N 9 16.09 Fair CLR 33.3 22.8 54% 38 76.23 1016.3
29 13:53 E 9 16.09 Fair CLR 33.3 23.9 33.3 26.1 58% 39 76.33 1017.6
29 12:53 E 11 16.09 Fair CLR 32.2 23.3 59% 37 76.38 1018.1
29 11:53 E 11 16.09 Fair CLR 31.1 25 70% 38 76.4 1018.4
29 10:53 NE 13 16.09 Fair CLR 29.4 25 77% 35 76.38 1018.3
29 09:53 E 9 16.09 Fair CLR 28.9 25 80% 34 76.38 1018.0
29 08:53 E 9 16.09 Fair CLR 27.8 24.4 82% 32 76.38 1018.3
29 07:53 Calm 16.09 Fair CLR 25.6 24.4 25.6 24.4 93% 27 76.35 1017.8
29 06:53 SE 6 16.09 Fair CLR 25 23.9 94% 26 76.33 1017.4
29 05:53 E 6 16.09 Fair CLR 25 23.9 94% 26 76.28 1016.7
29 04:53 Calm 16.09 Fair CLR 25 23.9 94% 26 76.25 1016.7
29 03:53 Calm 16.09 A Few Clouds FEW065 24.4 23.9 97% 24 76.28 1016.8
29 02:53 SE 6 16.09 Fair CLR 25 24.4 96% 25 76.3 1017.1
29 01:53 Calm 16.09 Fair CLR 25.6 23.9 27.8 25.6 90% 27 76.33 1017.4
29 00:53 SE 9 16.09 Fair CLR 25.6 23.9 90% 27 76.33 1017.6
28 23:53 SE 7 16.09 Fair CLR 26.1 23.9 88% 28 76.35 1017.7
28 22:53 SE 11 16.09 Fair CLR 26.7 24.4 87% 30 76.33 1017.7
28 21:53 SE 7 16.09 Fair CLR 26.7 24.4 87% 30 76.3 1017.2
28 20:53 Calm 16.09 Fair CLR 27.2 23.9 82% 30 76.23 1016.2
28 19:53 Vrbl 6 16.09 Fair CLR 27.2 24.4 32.8 26.7 85% 31 76.2 1015.9
28 18:53 Calm 16.09 Fair CLR 27.8 24.4 82% 32 76.25 1016.4
28 17:53 NE 9 16.09 Fair CLR 27.8 24.4 82% 32 76.23 1016.3
28 16:53 Calm 16.09 Fair CLR 27.2 23.3 79% 30 76.23 1016.2
28 15:53 NW 22 16.09 Thunderstorm in Vicinity BKN034 BKN055 27.2 23.3 79% 30 76.3 1017.3
28 14:53 SW 24 16.09 Thunderstorm in Vicinity FEW032 32.8 24.4 61% 39 76.25 1016.7
28 13:53 S 11 16.09 Fair CLR 31.7 23.9 31.7 23.9 63% 37 76.35 1017.9 0.94
28 12:53 S 9 16.09 Fair CLR 30.6 23.9 67% 36 76.38 1018.3
28 11:53 S 6 16.09 Light Rain FEW055 BKN110 26.7 22.8 79% 29 76.43 1019.0 0.05
28 10:53 SE 11 16.09 Thunderstorm in Vicinity Light Rain FEW040 BKN095 BKN120 26.1 23.9 88% 28 76.4 1018.5 0.03 0.89
28 09:53 S 6 16.09 Thunderstorm FEW028 SCT060 BKN075 26.1 22.8 82% 28 76.38 1018.4 0.74
28 08:53 S 28 16.09 Thunderstorm Heavy Rain BKN015 BKN035 OVC050 25 22.8 88% 26 76.35 1018.0 0.13
28 07:53 SE 9 16.09 Partly Cloudy FEW026 SCT041 SCT055 27.8 25 27.8 26.1 85% 32 76.28 1016.9
28 06:53 SE 11 16.09 Fair CLR 26.7 25 90% 30 76.25 1016.4
28 05:53 SE 9 16.09 Fair CLR 26.1 24.4 90% 28 76.2 1015.9
28 04:53 S 9 16.09 Fair CLR 26.1 24.4 90% 28 76.2 1015.7
28 03:53 SE 11 16.09 A Few Clouds FEW029 26.7 24.4 87% 30 76.17 1015.6
28 02:53 SE 9 16.09 Fair CLR 26.7 25 90% 30 76.2 1015.9
28 01:53 SE 6 16.09 Fair CLR 26.7 25 28.3 26.7 90% 30 76.23 1016.2
28 00:53 S 6 16.09 Fair CLR 26.7 24.4 87% 30 76.28 1016.7
27 23:53 S 7 16.09 Fair CLR 27.2 24.4 85% 31 76.28 1016.7
27 22:53 S 6 16.09 Fair CLR 27.8 25 85% 32 76.28 1016.9
27 21:53 SE 9 16.09 Fair CLR 27.8 25 85% 32 76.23 1016.1
Date Time (edt) Wind (kph) Vis. (km) Weather Sky Cond. Air Dwpt Max. Min. Relative Humidity Wind Chill (°C) Heat Index (°C) altimeter (cm) sea level (mb) 1 hr 3 hr 6 hr
6 hour
Temperature (ºC) Pressure Precipitation (cm)